createdAt,value
2019-02-26T00:03:04.999Z,103969.17
2019-02-26T00:13:10.822Z,103969.17
2019-02-26T00:23:16.408Z,103983.11
2019-02-26T00:33:23.067Z,103983.11
2019-02-26T00:43:30.650Z,103956.36
2019-02-26T00:53:36.674Z,103938.63
2019-02-26T01:03:44.352Z,103902.96
2019-02-26T01:13:50.776Z,103879.40
2019-02-26T01:23:59.645Z,103864.23
2019-02-26T01:34:04.703Z,103831.91
2019-02-26T01:44:10.550Z,103763.92
2019-02-26T01:54:16.829Z,103763.67
2019-02-26T02:04:22.699Z,103763.67
2019-02-26T02:14:28.425Z,103755.89
2019-02-26T02:24:34.117Z,103792.41
2019-02-26T02:34:42.930Z,103803.17
2019-02-26T02:44:49.286Z,103760.99
2019-02-26T02:54:54.614Z,103760.99
2019-02-26T03:05:00.419Z,103767.22
2019-02-26T03:15:10.037Z,103787.91
2019-02-26T03:25:20.510Z,103832.48
2019-02-26T03:35:24.598Z,103786.26
2019-02-26T03:45:30.573Z,103798.78
2019-02-26T03:55:38.799Z,103823.20
2019-02-26T04:05:43.542Z,103773.05
2019-02-26T04:15:51.511Z,103768.09
2019-02-26T04:26:35.117Z,103766.63
2019-02-26T04:36:52.556Z,103775.52
2019-02-26T04:47:00.222Z,103769.68
2019-02-26T04:57:05.783Z,103759.34
2019-02-26T05:07:14.018Z,103788.09
2019-02-26T05:17:21.859Z,103756.80
2019-02-26T05:27:27.494Z,103757.79
2019-02-26T05:37:35.406Z,103751.03
2019-02-26T05:47:42.876Z,103748.52
2019-02-26T05:57:47.743Z,103752.12
2019-02-26T06:07:53.564Z,103762.91
2019-02-26T06:18:00.625Z,103749.60
2019-02-26T06:28:07.654Z,103750.34
2019-02-26T06:38:13.651Z,103778.34
2019-02-26T06:48:22.347Z,103771.27
2019-02-26T06:58:27.667Z,103778.23
2019-02-26T07:08:36.379Z,103782.86
2019-02-26T07:18:41.974Z,103700.16
2019-02-26T07:28:48.715Z,103702.00
2019-02-26T07:38:56.538Z,103692.86
2019-02-26T07:49:04.761Z,103714.28
2019-02-26T07:59:12.451Z,103734.39
2019-02-26T08:09:19.418Z,103725.06
2019-02-26T08:19:29.737Z,103740.33
2019-02-26T08:29:34.311Z,103705.23
2019-02-26T08:39:39.998Z,103732.86
2019-02-26T08:49:47.500Z,103721.23
2019-02-26T08:59:54.558Z,103721.23
2019-02-26T09:10:00.400Z,103617.90
2019-02-26T09:20:14.670Z,103617.90
2019-02-26T09:30:20.608Z,103597.88
2019-02-26T09:40:28.868Z,103606.66
2019-02-26T09:50:33.701Z,103610.72
2019-02-26T10:00:40.579Z,103558.55
2019-02-26T10:10:46.900Z,103431.91
2019-02-26T10:20:54.614Z,103350.97
2019-02-26T10:31:04.219Z,103381.89
2019-02-26T10:41:07.012Z,103368.86
2019-02-26T10:51:16.733Z,103342.34
2019-02-26T11:01:23.620Z,103285.13
2019-02-26T11:11:30.428Z,103284.69
2019-02-26T11:21:35.966Z,103196.98
2019-02-26T11:31:44.575Z,103166.00
2019-02-26T11:41:51.324Z,103192.31
2019-02-26T11:51:57.470Z,103181.98
2019-02-26T12:02:04.545Z,103245.22
2019-02-26T12:12:11.597Z,103184.77
2019-02-26T12:22:18.065Z,103170.69
2019-02-26T12:32:26.924Z,103125.09
2019-02-26T12:42:32.874Z,103111.93
2019-02-26T12:52:38.727Z,103069.80
2019-02-26T13:02:45.853Z,103076.52
2019-02-26T13:12:55.201Z,103053.77
2019-02-26T13:23:16.449Z,103077.13
2019-02-26T13:33:10.811Z,103095.53
2019-02-26T13:43:13.981Z,103105.64
2019-02-26T13:53:20.084Z,103079.31
2019-02-26T14:03:25.767Z,103125.52
2019-02-26T14:13:31.754Z,103141.58
2019-02-26T14:23:37.445Z,103140.69
2019-02-26T14:33:43.031Z,103132.00
2019-02-26T14:43:48.636Z,103167.42
2019-02-26T14:53:54.315Z,103121.07
2019-02-26T15:03:59.911Z,103125.64
2019-02-26T15:14:05.493Z,103166.67
2019-02-26T15:24:11.210Z,103092.71
2019-02-26T15:34:17.121Z,103032.39
2019-02-26T15:44:23.017Z,103039.94
2019-02-26T15:54:28.630Z,103079.05
2019-02-26T16:04:34.576Z,103089.41
2019-02-26T16:14:40.333Z,103100.02
2019-02-26T16:24:46.341Z,103143.49
2019-02-26T16:34:52.997Z,103126.40
2019-02-26T16:45:01.202Z,103167.73
2019-02-26T16:55:08.949Z,103133.71
2019-02-26T17:05:15.179Z,103139.45
2019-02-26T17:15:26.955Z,103157.98
2019-02-26T17:25:32.622Z,103248.23
2019-02-26T17:35:38.341Z,103224.14
2019-02-26T17:45:44.031Z,103314.05
2019-02-26T17:55:50.076Z,103314.05
2019-02-26T18:05:55.856Z,103441.49
2019-02-26T18:16:08.953Z,103393.45
2019-02-26T18:26:08.898Z,103510.19
2019-02-26T18:36:14.563Z,103510.19
2019-02-26T18:46:20.273Z,103542.13
2019-02-26T18:56:26.001Z,103565.92
2019-02-26T19:06:31.976Z,103565.92
2019-02-26T19:16:37.485Z,103600.70
2019-02-26T19:26:44.463Z,103642.20
2019-02-26T19:36:50.534Z,103680.23
2019-02-26T19:46:57.648Z,103664.84
2019-02-26T19:57:03.361Z,103683.84
2019-02-26T20:07:09.170Z,103740.42
2019-02-26T20:17:15.044Z,103812.94
2019-02-26T20:27:21.813Z,103791.16
2019-02-26T20:37:29.044Z,103781.80
2019-02-26T20:47:34.942Z,103816.59
2019-02-26T20:57:40.806Z,103778.41
2019-02-26T21:07:46.551Z,103799.11
2019-02-26T21:17:52.231Z,103849.22
2019-02-26T21:28:00.701Z,103835.88
2019-02-26T21:38:06.810Z,103818.42
2019-02-26T21:48:12.729Z,103841.98
2019-02-26T21:58:18.530Z,103846.59
2019-02-26T22:08:25.224Z,103842.78
2019-02-26T22:18:34.053Z,103857.44
2019-02-26T22:28:39.724Z,103876.75
2019-02-26T22:38:49.016Z,103875.30
2019-02-26T22:48:53.576Z,103863.42
2019-02-26T22:58:59.378Z,103841.58
2019-02-26T23:09:05.732Z,103820.54
2019-02-26T23:19:13.156Z,103805.44
2019-02-26T23:29:19.146Z,103802.05
2019-02-26T23:39:25.891Z,103805.26
2019-02-26T23:49:33.116Z,103814.97
2019-02-26T23:59:38.720Z,103816.42
